sensor_id;sensor_type;location;lat;lon;timestamp;P1;durP1;ratioP1;P2;durP2;ratioP2
27031;SDS011;14580;52.918;9.214;2022-07-21T00:00:20;13.00;;;8.07;;
27031;SDS011;14580;52.918;9.214;2022-07-21T00:02:48;11.33;;;7.70;;
27031;SDS011;14580;52.918;9.214;2022-07-21T00:05:14;13.93;;;8.23;;
27031;SDS011;14580;52.918;9.214;2022-07-21T00:07:41;8.87;;;7.40;;
27031;SDS011;14580;52.918;9.214;2022-07-21T00:10:07;8.33;;;6.90;;
27031;SDS011;14580;52.918;9.214;2022-07-21T00:12:34;9.67;;;7.20;;
27031;SDS011;14580;52.918;9.214;2022-07-21T00:15:00;12.10;;;7.70;;
27031;SDS011;14580;52.918;9.214;2022-07-21T00:17:28;10.03;;;7.20;;
27031;SDS011;14580;52.918;9.214;2022-07-21T00:19:54;14.30;;;7.27;;
27031;SDS011;14580;52.918;9.214;2022-07-21T00:22:20;12.37;;;7.20;;
27031;SDS011;14580;52.918;9.214;2022-07-21T00:24:46;11.27;;;8.03;;
27031;SDS011;14580;52.918;9.214;2022-07-21T00:27:11;12.73;;;7.90;;
27031;SDS011;14580;52.918;9.214;2022-07-21T00:29:37;12.40;;;8.37;;
27031;SDS011;14580;52.918;9.214;2022-07-21T00:32:03;14.40;;;8.83;;
27031;SDS011;14580;52.918;9.214;2022-07-21T00:34:30;12.47;;;7.27;;
27031;SDS011;14580;52.918;9.214;2022-07-21T00:36:57;12.47;;;8.23;;
27031;SDS011;14580;52.918;9.214;2022-07-21T00:39:23;10.37;;;7.60;;
27031;SDS011;14580;52.918;9.214;2022-07-21T00:41:48;13.40;;;7.83;;
27031;SDS011;14580;52.918;9.214;2022-07-21T00:44:21;13.90;;;8.63;;
27031;SDS011;14580;52.918;9.214;2022-07-21T00:46:49;13.20;;;8.17;;
27031;SDS011;14580;52.918;9.214;2022-07-21T00:49:15;11.47;;;8.57;;
27031;SDS011;14580;52.918;9.214;2022-07-21T00:51:42;11.83;;;9.03;;
27031;SDS011;14580;52.918;9.214;2022-07-21T00:54:08;14.80;;;8.40;;
27031;SDS011;14580;52.918;9.214;2022-07-21T00:56:34;11.93;;;8.07;;
27031;SDS011;14580;52.918;9.214;2022-07-21T00:59:00;10.33;;;8.17;;
27031;SDS011;14580;52.918;9.214;2022-07-21T01:01:26;15.07;;;7.90;;
27031;SDS011;14580;52.918;9.214;2022-07-21T01:03:52;12.87;;;8.33;;
27031;SDS011;14580;52.918;9.214;2022-07-21T01:06:18;13.53;;;8.03;;
27031;SDS011;14580;52.918;9.214;2022-07-21T01:08:44;16.27;;;7.93;;
27031;SDS011;14580;52.918;9.214;2022-07-21T01:11:10;16.67;;;8.27;;
27031;SDS011;14580;52.918;9.214;2022-07-21T01:13:35;9.43;;;7.97;;
27031;SDS011;14580;52.918;9.214;2022-07-21T01:16:07;14.63;;;7.10;;
27031;SDS011;14580;52.918;9.214;2022-07-21T01:18:33;13.53;;;8.20;;
27031;SDS011;14580;52.918;9.214;2022-07-21T01:20:59;10.10;;;7.90;;
27031;SDS011;14580;52.918;9.214;2022-07-21T01:23:33;13.70;;;8.33;;
27031;SDS011;14580;52.918;9.214;2022-07-21T01:25:59;11.20;;;7.43;;
27031;SDS011;14580;52.918;9.214;2022-07-21T01:28:27;10.13;;;7.97;;
27031;SDS011;14580;52.918;9.214;2022-07-21T01:30:53;14.03;;;7.17;;
27031;SDS011;14580;52.918;9.214;2022-07-21T01:33:19;11.27;;;7.17;;
27031;SDS011;14580;52.918;9.214;2022-07-21T01:35:44;11.00;;;7.60;;
27031;SDS011;14580;52.918;9.214;2022-07-21T01:38:11;12.83;;;7.30;;
27031;SDS011;14580;52.918;9.214;2022-07-21T01:40:59;9.47;;;6.97;;
27031;SDS011;14580;52.918;9.214;2022-07-21T01:43:43;9.53;;;7.30;;
27031;SDS011;14580;52.918;9.214;2022-07-21T01:46:13;9.97;;;7.73;;
27031;SDS011;14580;52.918;9.214;2022-07-21T01:48:42;11.73;;;7.80;;
27031;SDS011;14580;52.918;9.214;2022-07-21T01:51:09;14.10;;;7.47;;
27031;SDS011;14580;52.918;9.214;2022-07-21T01:53:35;11.83;;;7.20;;
27031;SDS011;14580;52.918;9.214;2022-07-21T01:56:02;14.67;;;8.07;;
27031;SDS011;14580;52.918;9.214;2022-07-21T01:58:30;14.50;;;8.13;;
27031;SDS011;14580;52.918;9.214;2022-07-21T02:00:56;11.07;;;8.07;;
27031;SDS011;14580;52.918;9.214;2022-07-21T02:03:22;12.60;;;8.10;;
27031;SDS011;14580;52.918;9.214;2022-07-21T02:05:48;13.03;;;8.30;;
27031;SDS011;14580;52.918;9.214;2022-07-21T02:08:14;11.10;;;8.47;;
27031;SDS011;14580;52.918;9.214;2022-07-21T02:10:40;12.57;;;9.33;;
27031;SDS011;14580;52.918;9.214;2022-07-21T02:13:06;12.80;;;8.67;;
27031;SDS011;14580;52.918;9.214;2022-07-21T02:15:32;15.60;;;8.83;;
27031;SDS011;14580;52.918;9.214;2022-07-21T02:17:58;11.43;;;8.40;;
27031;SDS011;14580;52.918;9.214;2022-07-21T02:20:24;13.10;;;9.07;;
27031;SDS011;14580;52.918;9.214;2022-07-21T02:22:51;12.67;;;8.53;;
27031;SDS011;14580;52.918;9.214;2022-07-21T02:25:18;11.73;;;7.83;;
27031;SDS011;14580;52.918;9.214;2022-07-21T02:27:45;12.50;;;8.33;;
27031;SDS011;14580;52.918;9.214;2022-07-21T02:30:12;12.93;;;8.07;;
27031;SDS011;14580;52.918;9.214;2022-07-21T02:32:38;10.37;;;7.70;;
27031;SDS011;14580;52.918;9.214;2022-07-21T02:35:05;11.00;;;8.47;;
27031;SDS011;14580;52.918;9.214;2022-07-21T02:37:31;14.37;;;8.57;;
27031;SDS011;14580;52.918;9.214;2022-07-21T02:39:57;10.60;;;7.80;;
27031;SDS011;14580;52.918;9.214;2022-07-21T02:42:23;13.83;;;8.70;;
27031;SDS011;14580;52.918;9.214;2022-07-21T02:44:49;13.90;;;8.00;;
27031;SDS011;14580;52.918;9.214;2022-07-21T02:47:14;9.47;;;7.63;;
27031;SDS011;14580;52.918;9.214;2022-07-21T02:49:40;13.73;;;9.20;;
27031;SDS011;14580;52.918;9.214;2022-07-21T02:52:06;13.93;;;8.40;;
27031;SDS011;14580;52.918;9.214;2022-07-21T02:54:32;12.73;;;8.43;;
27031;SDS011;14580;52.918;9.214;2022-07-21T02:56:58;13.70;;;8.67;;
27031;SDS011;14580;52.918;9.214;2022-07-21T02:59:23;14.73;;;8.60;;
27031;SDS011;14580;52.918;9.214;2022-07-21T03:01:49;12.90;;;9.03;;
27031;SDS011;14580;52.918;9.214;2022-07-21T03:04:15;13.23;;;8.80;;
27031;SDS011;14580;52.918;9.214;2022-07-21T03:06:41;11.33;;;9.03;;
27031;SDS011;14580;52.918;9.214;2022-07-21T03:09:07;13.93;;;9.07;;
27031;SDS011;14580;52.918;9.214;2022-07-21T03:11:34;13.67;;;8.87;;
27031;SDS011;14580;52.918;9.214;2022-07-21T03:14:01;13.80;;;9.03;;
27031;SDS011;14580;52.918;9.214;2022-07-21T03:16:27;11.97;;;9.50;;
27031;SDS011;14580;52.918;9.214;2022-07-21T03:18:53;11.87;;;8.53;;
27031;SDS011;14580;52.918;9.214;2022-07-21T03:21:19;12.73;;;7.97;;
27031;SDS011;14580;52.918;9.214;2022-07-21T03:23:44;10.73;;;8.90;;
27031;SDS011;14580;52.918;9.214;2022-07-21T03:26:13;12.67;;;8.73;;
27031;SDS011;14580;52.918;9.214;2022-07-21T03:28:41;10.93;;;8.10;;
27031;SDS011;14580;52.918;9.214;2022-07-21T03:31:08;13.03;;;8.60;;
27031;SDS011;14580;52.918;9.214;2022-07-21T03:33:35;9.80;;;7.40;;
27031;SDS011;14580;52.918;9.214;2022-07-21T03:36:01;9.23;;;7.50;;
27031;SDS011;14580;52.918;9.214;2022-07-21T03:38:28;11.87;;;7.60;;
27031;SDS011;14580;52.918;9.214;2022-07-21T03:40:53;11.83;;;7.50;;
27031;SDS011;14580;52.918;9.214;2022-07-21T03:43:19;7.23;;;6.53;;
27031;SDS011;14580;52.918;9.214;2022-07-21T03:45:45;8.73;;;6.40;;
27031;SDS011;14580;52.918;9.214;2022-07-21T03:48:11;10.10;;;6.70;;
27031;SDS011;14580;52.918;9.214;2022-07-21T03:50:38;7.40;;;5.37;;
27031;SDS011;14580;52.918;9.214;2022-07-21T03:53:06;9.50;;;5.57;;
27031;SDS011;14580;52.918;9.214;2022-07-21T03:55:32;8.87;;;5.13;;
27031;SDS011;14580;52.918;9.214;2022-07-21T03:58:00;5.83;;;4.87;;
27031;SDS011;14580;52.918;9.214;2022-07-21T04:00:33;10.87;;;4.60;;
27031;SDS011;14580;52.918;9.214;2022-07-21T04:03:00;5.07;;;4.60;;
27031;SDS011;14580;52.918;9.214;2022-07-21T04:05:26;6.10;;;4.17;;
27031;SDS011;14580;52.918;9.214;2022-07-21T04:07:53;7.33;;;4.30;;
27031;SDS011;14580;52.918;9.214;2022-07-21T04:10:21;6.90;;;4.50;;
27031;SDS011;14580;52.918;9.214;2022-07-21T04:12:50;9.20;;;4.40;;
27031;SDS011;14580;52.918;9.214;2022-07-21T04:15:16;5.83;;;3.77;;
27031;SDS011;14580;52.918;9.214;2022-07-21T04:17:42;6.73;;;4.20;;
27031;SDS011;14580;52.918;9.214;2022-07-21T04:20:09;6.90;;;4.10;;
27031;SDS011;14580;52.918;9.214;2022-07-21T04:22:38;7.63;;;4.73;;
27031;SDS011;14580;52.918;9.214;2022-07-21T04:25:04;6.47;;;4.00;;
27031;SDS011;14580;52.918;9.214;2022-07-21T04:27:32;6.20;;;4.60;;
27031;SDS011;14580;52.918;9.214;2022-07-21T04:29:59;7.57;;;3.60;;
27031;SDS011;14580;52.918;9.214;2022-07-21T04:32:25;7.27;;;4.23;;
27031;SDS011;14580;52.918;9.214;2022-07-21T04:34:51;5.13;;;3.80;;
27031;SDS011;14580;52.918;9.214;2022-07-21T04:37:17;6.20;;;5.03;;
27031;SDS011;14580;52.918;9.214;2022-07-21T04:39:43;7.17;;;4.20;;
27031;SDS011;14580;52.918;9.214;2022-07-21T04:42:08;10.17;;;4.13;;
27031;SDS011;14580;52.918;9.214;2022-07-21T04:44:34;5.83;;;4.40;;
27031;SDS011;14580;52.918;9.214;2022-07-21T04:47:00;6.57;;;4.10;;
27031;SDS011;14580;52.918;9.214;2022-07-21T04:49:26;6.43;;;4.43;;
27031;SDS011;14580;52.918;9.214;2022-07-21T04:51:52;7.40;;;4.23;;
27031;SDS011;14580;52.918;9.214;2022-07-21T04:54:20;7.97;;;4.53;;
27031;SDS011;14580;52.918;9.214;2022-07-21T04:56:46;6.97;;;4.33;;
27031;SDS011;14580;52.918;9.214;2022-07-21T04:59:11;5.47;;;3.80;;
27031;SDS011;14580;52.918;9.214;2022-07-21T05:01:38;7.73;;;3.93;;
27031;SDS011;14580;52.918;9.214;2022-07-21T05:04:05;5.13;;;4.33;;
27031;SDS011;14580;52.918;9.214;2022-07-21T05:06:31;6.97;;;4.40;;
27031;SDS011;14580;52.918;9.214;2022-07-21T05:08:58;5.43;;;4.00;;
27031;SDS011;14580;52.918;9.214;2022-07-21T05:11:24;6.20;;;4.57;;
27031;SDS011;14580;52.918;9.214;2022-07-21T05:13:50;6.57;;;4.40;;
27031;SDS011;14580;52.918;9.214;2022-07-21T05:16:17;5.53;;;4.33;;
27031;SDS011;14580;52.918;9.214;2022-07-21T05:18:43;5.00;;;4.00;;
27031;SDS011;14580;52.918;9.214;2022-07-21T05:21:09;4.90;;;4.37;;
27031;SDS011;14580;52.918;9.214;2022-07-21T05:23:34;6.43;;;4.13;;
27031;SDS011;14580;52.918;9.214;2022-07-21T05:26:00;5.23;;;4.37;;
27031;SDS011;14580;52.918;9.214;2022-07-21T05:28:27;6.27;;;3.97;;
27031;SDS011;14580;52.918;9.214;2022-07-21T05:30:53;6.57;;;4.20;;
27031;SDS011;14580;52.918;9.214;2022-07-21T05:33:19;4.83;;;3.90;;
27031;SDS011;14580;52.918;9.214;2022-07-21T05:35:45;7.00;;;4.20;;
27031;SDS011;14580;52.918;9.214;2022-07-21T05:38:11;5.07;;;4.47;;
27031;SDS011;14580;52.918;9.214;2022-07-21T05:40:37;4.63;;;4.10;;
27031;SDS011;14580;52.918;9.214;2022-07-21T05:43:03;6.53;;;4.10;;
27031;SDS011;14580;52.918;9.214;2022-07-21T05:45:29;7.20;;;4.40;;
27031;SDS011;14580;52.918;9.214;2022-07-21T05:47:54;5.00;;;4.20;;
27031;SDS011;14580;52.918;9.214;2022-07-21T05:50:20;7.23;;;4.30;;
27031;SDS011;14580;52.918;9.214;2022-07-21T05:52:46;8.37;;;4.70;;
27031;SDS011;14580;52.918;9.214;2022-07-21T05:55:12;7.00;;;4.20;;
27031;SDS011;14580;52.918;9.214;2022-07-21T05:57:38;6.27;;;4.23;;
27031;SDS011;14580;52.918;9.214;2022-07-21T06:00:05;5.87;;;4.30;;
27031;SDS011;14580;52.918;9.214;2022-07-21T06:02:32;6.83;;;4.53;;
27031;SDS011;14580;52.918;9.214;2022-07-21T06:04:58;7.87;;;4.57;;
27031;SDS011;14580;52.918;9.214;2022-07-21T06:07:24;6.73;;;4.67;;
27031;SDS011;14580;52.918;9.214;2022-07-21T06:09:50;7.27;;;4.77;;
27031;SDS011;14580;52.918;9.214;2022-07-21T06:12:16;7.80;;;4.00;;
27031;SDS011;14580;52.918;9.214;2022-07-21T06:14:42;8.17;;;4.80;;
27031;SDS011;14580;52.918;9.214;2022-07-21T06:17:08;6.03;;;4.40;;
27031;SDS011;14580;52.918;9.214;2022-07-21T06:19:34;6.40;;;4.37;;
27031;SDS011;14580;52.918;9.214;2022-07-21T06:22:00;4.40;;;4.00;;
27031;SDS011;14580;52.918;9.214;2022-07-21T06:24:27;4.73;;;4.07;;
27031;SDS011;14580;52.918;9.214;2022-07-21T06:26:53;6.60;;;4.70;;
27031;SDS011;14580;52.918;9.214;2022-07-21T06:29:23;7.47;;;4.87;;
27031;SDS011;14580;52.918;9.214;2022-07-21T06:31:49;7.37;;;4.23;;
27031;SDS011;14580;52.918;9.214;2022-07-21T06:34:15;6.60;;;4.43;;
27031;SDS011;14580;52.918;9.214;2022-07-21T06:36:41;5.33;;;4.13;;
27031;SDS011;14580;52.918;9.214;2022-07-21T06:39:07;5.80;;;4.43;;
27031;SDS011;14580;52.918;9.214;2022-07-21T06:41:33;6.70;;;4.33;;
27031;SDS011;14580;52.918;9.214;2022-07-21T06:43:59;7.07;;;4.87;;
27031;SDS011;14580;52.918;9.214;2022-07-21T06:46:27;4.30;;;3.90;;
27031;SDS011;14580;52.918;9.214;2022-07-21T06:48:52;5.67;;;4.50;;
27031;SDS011;14580;52.918;9.214;2022-07-21T06:51:18;6.20;;;4.40;;
27031;SDS011;14580;52.918;9.214;2022-07-21T06:53:44;7.30;;;4.30;;
27031;SDS011;14580;52.918;9.214;2022-07-21T06:56:10;5.33;;;4.43;;
27031;SDS011;14580;52.918;9.214;2022-07-21T06:58:35;8.17;;;4.87;;
27031;SDS011;14580;52.918;9.214;2022-07-21T07:01:01;6.40;;;4.90;;
27031;SDS011;14580;52.918;9.214;2022-07-21T07:03:27;6.60;;;5.97;;
27031;SDS011;14580;52.918;9.214;2022-07-21T07:05:53;7.83;;;6.97;;
27031;SDS011;14580;52.918;9.214;2022-07-21T07:08:19;8.47;;;7.40;;
27031;SDS011;14580;52.918;9.214;2022-07-21T07:10:45;14.03;;;7.53;;
27031;SDS011;14580;52.918;9.214;2022-07-21T07:13:11;13.43;;;8.27;;
27031;SDS011;14580;52.918;9.214;2022-07-21T07:15:40;9.47;;;8.47;;
27031;SDS011;14580;52.918;9.214;2022-07-21T07:18:06;13.47;;;8.73;;
27031;SDS011;14580;52.918;9.214;2022-07-21T07:20:32;9.57;;;8.50;;
27031;SDS011;14580;52.918;9.214;2022-07-21T07:22:58;10.87;;;9.57;;
27031;SDS011;14580;52.918;9.214;2022-07-21T07:25:24;13.80;;;11.03;;
27031;SDS011;14580;52.918;9.214;2022-07-21T07:27:50;12.07;;;9.40;;
27031;SDS011;14580;52.918;9.214;2022-07-21T07:30:17;11.17;;;9.30;;
27031;SDS011;14580;52.918;9.214;2022-07-21T07:32:44;12.20;;;8.60;;
27031;SDS011;14580;52.918;9.214;2022-07-21T07:35:12;10.50;;;9.13;;
27031;SDS011;14580;52.918;9.214;2022-07-21T07:37:39;10.60;;;8.73;;
27031;SDS011;14580;52.918;9.214;2022-07-21T07:40:10;13.17;;;8.73;;
27031;SDS011;14580;52.918;9.214;2022-07-21T07:42:40;12.43;;;8.70;;
27031;SDS011;14580;52.918;9.214;2022-07-21T07:45:06;8.83;;;7.73;;
27031;SDS011;14580;52.918;9.214;2022-07-21T07:47:34;10.27;;;8.07;;
27031;SDS011;14580;52.918;9.214;2022-07-21T07:50:00;9.50;;;8.07;;
27031;SDS011;14580;52.918;9.214;2022-07-21T07:52:26;9.33;;;7.90;;
27031;SDS011;14580;52.918;9.214;2022-07-21T07:54:53;9.43;;;7.63;;
27031;SDS011;14580;52.918;9.214;2022-07-21T07:57:19;11.10;;;9.50;;
27031;SDS011;14580;52.918;9.214;2022-07-21T07:59:45;10.17;;;7.83;;
27031;SDS011;14580;52.918;9.214;2022-07-21T08:02:11;11.03;;;7.97;;
27031;SDS011;14580;52.918;9.214;2022-07-21T08:04:45;10.10;;;8.60;;
27031;SDS011;14580;52.918;9.214;2022-07-21T08:07:11;7.73;;;6.90;;
27031;SDS011;14580;52.918;9.214;2022-07-21T08:09:38;8.63;;;7.37;;
27031;SDS011;14580;52.918;9.214;2022-07-21T08:12:05;8.10;;;7.03;;
27031;SDS011;14580;52.918;9.214;2022-07-21T08:14:31;6.97;;;6.13;;
27031;SDS011;14580;52.918;9.214;2022-07-21T08:16:57;7.83;;;7.03;;
27031;SDS011;14580;52.918;9.214;2022-07-21T08:19:24;8.10;;;6.40;;
27031;SDS011;14580;52.918;9.214;2022-07-21T08:21:50;7.57;;;6.00;;
27031;SDS011;14580;52.918;9.214;2022-07-21T08:24:16;8.57;;;6.30;;
27031;SDS011;14580;52.918;9.214;2022-07-21T08:26:42;7.17;;;5.87;;
27031;SDS011;14580;52.918;9.214;2022-07-21T08:29:09;6.60;;;5.80;;
27031;SDS011;14580;52.918;9.214;2022-07-21T08:31:35;6.90;;;5.57;;
27031;SDS011;14580;52.918;9.214;2022-07-21T08:34:01;6.23;;;5.43;;
27031;SDS011;14580;52.918;9.214;2022-07-21T08:36:27;5.90;;;5.20;;
27031;SDS011;14580;52.918;9.214;2022-07-21T08:38:53;8.80;;;5.57;;
27031;SDS011;14580;52.918;9.214;2022-07-21T08:41:18;6.70;;;4.90;;
27031;SDS011;14580;52.918;9.214;2022-07-21T08:43:45;4.80;;;4.30;;
27031;SDS011;14580;52.918;9.214;2022-07-21T08:46:12;5.40;;;4.23;;
27031;SDS011;14580;52.918;9.214;2022-07-21T08:48:39;6.40;;;4.53;;
27031;SDS011;14580;52.918;9.214;2022-07-21T08:51:06;5.10;;;4.60;;
27031;SDS011;14580;52.918;9.214;2022-07-21T08:53:33;5.17;;;4.67;;
27031;SDS011;14580;52.918;9.214;2022-07-21T08:55:58;5.27;;;4.60;;
27031;SDS011;14580;52.918;9.214;2022-07-21T08:58:24;6.13;;;4.50;;
27031;SDS011;14580;52.918;9.214;2022-07-21T09:00:50;6.87;;;4.27;;
27031;SDS011;14580;52.918;9.214;2022-07-21T09:03:26;6.67;;;4.80;;
27031;SDS011;14580;52.918;9.214;2022-07-21T09:08:42;5.07;;;4.17;;
27031;SDS011;14580;52.918;9.214;2022-07-21T09:13:42;5.17;;;4.47;;
27031;SDS011;14580;52.918;9.214;2022-07-21T09:16:09;5.40;;;4.50;;
27031;SDS011;14580;52.918;9.214;2022-07-21T09:18:49;6.25;;;4.60;;
27031;SDS011;14580;52.918;9.214;2022-07-21T09:21:17;4.90;;;4.50;;
27031;SDS011;14580;52.918;9.214;2022-07-21T09:23:43;4.20;;;3.80;;
27031;SDS011;14580;52.918;9.214;2022-07-21T09:26:09;4.10;;;3.80;;
27031;SDS011;14580;52.918;9.214;2022-07-21T09:28:36;4.97;;;4.43;;
27031;SDS011;14580;52.918;9.214;2022-07-21T09:31:06;4.13;;;3.73;;
27031;SDS011;14580;52.918;9.214;2022-07-21T09:33:43;4.20;;;3.80;;
27031;SDS011;14580;52.918;9.214;2022-07-21T09:38:51;3.70;;;3.40;;
27031;SDS011;14580;52.918;9.214;2022-07-21T09:41:24;2.67;;;2.47;;
27031;SDS011;14580;52.918;9.214;2022-07-21T09:43:57;2.90;;;2.57;;
27031;SDS011;14580;52.918;9.214;2022-07-21T09:46:24;2.57;;;2.37;;
27031;SDS011;14580;52.918;9.214;2022-07-21T09:48:58;2.83;;;2.63;;
27031;SDS011;14580;52.918;9.214;2022-07-21T09:51:28;2.63;;;2.43;;
27031;SDS011;14580;52.918;9.214;2022-07-21T09:56:26;6.37;;;4.23;;
27031;SDS011;14580;52.918;9.214;2022-07-21T09:58:58;6.77;;;4.37;;
27031;SDS011;14580;52.918;9.214;2022-07-21T10:01:25;4.77;;;4.37;;
27031;SDS011;14580;52.918;9.214;2022-07-21T10:03:54;5.63;;;4.50;;
27031;SDS011;14580;52.918;9.214;2022-07-21T10:06:28;5.47;;;4.97;;
27031;SDS011;14580;52.918;9.214;2022-07-21T10:08:58;6.10;;;5.60;;
27031;SDS011;14580;52.918;9.214;2022-07-21T10:11:26;7.43;;;5.77;;
27031;SDS011;14580;52.918;9.214;2022-07-21T10:13:53;7.67;;;6.03;;
27031;SDS011;14580;52.918;9.214;2022-07-21T10:16:20;6.33;;;5.33;;
27031;SDS011;14580;52.918;9.214;2022-07-21T10:21:49;5.87;;;5.37;;
27031;SDS011;14580;52.918;9.214;2022-07-21T10:24:35;6.63;;;5.80;;
27031;SDS011;14580;52.918;9.214;2022-07-21T10:27:09;8.07;;;5.57;;
27031;SDS011;14580;52.918;9.214;2022-07-21T10:32:32;6.70;;;6.07;;
27031;SDS011;14580;52.918;9.214;2022-07-21T10:35:47;6.33;;;5.73;;
27031;SDS011;14580;52.918;9.214;2022-07-21T10:37:55;6.23;;;5.47;;
27031;SDS011;14580;52.918;9.214;2022-07-21T10:43:35;7.07;;;6.37;;
27031;SDS011;14580;52.918;9.214;2022-07-21T10:48:01;8.43;;;6.97;;
27031;SDS011;14580;52.918;9.214;2022-07-21T10:50:41;7.17;;;6.13;;
27031;SDS011;14580;52.918;9.214;2022-07-21T10:53:14;7.73;;;6.67;;
27031;SDS011;14580;52.918;9.214;2022-07-21T10:55:50;7.90;;;6.37;;
27031;SDS011;14580;52.918;9.214;2022-07-21T10:58:28;6.60;;;6.00;;
27031;SDS011;14580;52.918;9.214;2022-07-21T11:03:40;8.73;;;6.23;;
27031;SDS011;14580;52.918;9.214;2022-07-21T11:06:18;6.90;;;6.30;;
27031;SDS011;14580;52.918;9.214;2022-07-21T11:11:30;7.80;;;7.00;;
27031;SDS011;14580;52.918;9.214;2022-07-21T11:24:45;9.27;;;6.70;;
27031;SDS011;14580;52.918;9.214;2022-07-21T11:27:23;7.43;;;6.70;;
27031;SDS011;14580;52.918;9.214;2022-07-21T11:29:58;8.53;;;7.67;;
27031;SDS011;14580;52.918;9.214;2022-07-21T11:32:27;8.60;;;7.80;;
27031;SDS011;14580;52.918;9.214;2022-07-21T11:34:57;8.80;;;8.00;;
27031;SDS011;14580;52.918;9.214;2022-07-21T11:40:00;8.63;;;7.83;;
27031;SDS011;14580;52.918;9.214;2022-07-21T11:42:27;9.17;;;8.27;;
27031;SDS011;14580;52.918;9.214;2022-07-21T11:44:55;11.37;;;8.83;;
27031;SDS011;14580;52.918;9.214;2022-07-21T11:47:22;9.50;;;8.60;;
27031;SDS011;14580;52.918;9.214;2022-07-21T11:49:52;9.90;;;8.07;;
27031;SDS011;14580;52.918;9.214;2022-07-21T11:52:27;10.37;;;9.37;;
27031;SDS011;14580;52.918;9.214;2022-07-21T11:54:56;12.23;;;8.73;;
27031;SDS011;14580;52.918;9.214;2022-07-21T11:57:24;11.53;;;10.07;;
27031;SDS011;14580;52.918;9.214;2022-07-21T11:59:51;10.67;;;9.60;;
27031;SDS011;14580;52.918;9.214;2022-07-21T12:02:21;10.53;;;9.53;;
27031;SDS011;14580;52.918;9.214;2022-07-21T12:07:28;11.43;;;10.10;;
27031;SDS011;14580;52.918;9.214;2022-07-21T12:10:05;12.13;;;9.60;;
27031;SDS011;14580;52.918;9.214;2022-07-21T12:12:39;11.37;;;10.17;;
27031;SDS011;14580;52.918;9.214;2022-07-21T12:17:39;12.20;;;11.00;;
27031;SDS011;14580;52.918;9.214;2022-07-21T12:20:08;12.70;;;11.17;;
27031;SDS011;14580;52.918;9.214;2022-07-21T12:22:42;12.40;;;11.13;;
27031;SDS011;14580;52.918;9.214;2022-07-21T12:25:15;12.33;;;10.80;;
27031;SDS011;14580;52.918;9.214;2022-07-21T12:27:46;14.37;;;9.90;;
27031;SDS011;14580;52.918;9.214;2022-07-21T12:33:14;11.90;;;9.70;;
27031;SDS011;14580;52.918;9.214;2022-07-21T12:36:07;10.23;;;9.17;;
27031;SDS011;14580;52.918;9.214;2022-07-21T12:38:44;11.27;;;9.53;;
27031;SDS011;14580;52.918;9.214;2022-07-21T12:41:17;15.47;;;10.67;;
27031;SDS011;14580;52.918;9.214;2022-07-21T12:43:55;11.90;;;10.43;;
27031;SDS011;14580;52.918;9.214;2022-07-21T12:46:30;11.80;;;10.67;;
27031;SDS011;14580;52.918;9.214;2022-07-21T12:49:03;11.83;;;10.63;;
27031;SDS011;14580;52.918;9.214;2022-07-21T12:51:34;11.43;;;10.33;;
27031;SDS011;14580;52.918;9.214;2022-07-21T12:54:01;9.57;;;8.67;;
27031;SDS011;14580;52.918;9.214;2022-07-21T12:56:28;9.73;;;8.70;;
27031;SDS011;14580;52.918;9.214;2022-07-21T12:58:58;9.50;;;8.70;;
27031;SDS011;14580;52.918;9.214;2022-07-21T13:01:27;9.63;;;8.57;;
27031;SDS011;14580;52.918;9.214;2022-07-21T13:03:56;8.93;;;8.13;;
27031;SDS011;14580;52.918;9.214;2022-07-21T13:06:22;11.23;;;9.63;;
27031;SDS011;14580;52.918;9.214;2022-07-21T13:08:48;10.53;;;9.53;;
27031;SDS011;14580;52.918;9.214;2022-07-21T13:11:18;10.47;;;9.37;;
27031;SDS011;14580;52.918;9.214;2022-07-21T13:13:45;11.33;;;10.30;;
